createdAt,value
2018-03-04T14:27:32.000Z,39.40
2018-03-04T14:29:58.111Z,36.30
2018-03-04T14:32:39.110Z,36.20
2018-03-04T14:35:05.177Z,40.57
2018-03-04T14:37:31.273Z,34.67
2018-03-04T14:39:57.632Z,38.10
2018-03-04T14:42:23.720Z,27.93
2018-03-04T14:44:50.142Z,37.23
2018-03-04T14:47:16.264Z,40.73
2018-03-04T14:49:42.611Z,37.73
2018-03-04T14:52:08.667Z,43.80
2018-03-04T14:54:35.099Z,40.50
2018-03-04T14:57:01.320Z,40.67
2018-03-04T14:59:27.558Z,39.27
2018-03-04T15:01:54.383Z,41.73
2018-03-04T15:04:20.521Z,36.67
2018-03-04T15:06:46.634Z,35.90
2018-03-04T15:09:13.271Z,31.27
2018-03-04T15:11:39.419Z,36.20
2018-03-04T15:14:05.486Z,41.07
2018-03-04T15:16:31.842Z,37.70
2018-03-04T15:18:57.913Z,37.40
2018-03-04T15:21:24.111Z,39.73
2018-03-04T15:23:50.936Z,32.10
2018-03-04T15:26:17.213Z,32.90
2018-03-04T15:28:43.318Z,34.00
2018-03-04T15:31:09.405Z,32.27
2018-03-04T15:33:35.553Z,35.63
2018-03-04T15:36:01.707Z,32.43
2018-03-04T15:38:28.137Z,34.53
2018-03-04T15:40:54.256Z,37.03
2018-03-04T15:43:20.379Z,31.23
2018-03-04T15:45:46.689Z,29.53
2018-03-04T15:48:13.262Z,34.27
2018-03-04T15:50:39.376Z,31.87
2018-03-04T15:53:05.641Z,36.03
2018-03-04T15:55:31.746Z,31.57
2018-03-04T15:57:57.950Z,37.93
2018-03-04T16:00:24.102Z,30.43
2018-03-04T16:02:50.173Z,34.93
2018-03-04T16:05:16.238Z,33.13
2018-03-04T16:07:42.347Z,37.60
2018-03-04T16:10:08.475Z,34.20
2018-03-04T16:12:35.005Z,34.03
2018-03-04T16:15:01.078Z,32.93
2018-03-04T16:17:27.162Z,28.20
2018-03-04T16:19:53.920Z,28.03
2018-03-04T16:22:20.063Z,38.83
2018-03-04T16:24:46.351Z,37.70
2018-03-04T16:27:12.772Z,30.83
2018-03-04T16:29:39.097Z,40.50
2018-03-04T16:32:05.226Z,34.07
2018-03-04T16:34:32.186Z,33.37
2018-03-04T16:36:58.316Z,31.77
2018-03-04T16:39:24.477Z,40.23
2018-03-04T16:41:50.564Z,33.00
2018-03-04T16:44:16.669Z,33.23
2018-03-04T16:46:42.880Z,36.30
2018-03-04T16:49:09.852Z,36.17
2018-03-04T16:51:35.979Z,41.00
2018-03-04T16:54:02.260Z,37.33
2018-03-04T16:56:28.631Z,39.07
2018-03-04T16:58:54.759Z,47.97
2018-03-04T17:01:20.790Z,34.77
2018-03-04T17:03:46.887Z,34.67
2018-03-04T17:06:13.026Z,38.60
2018-03-04T17:08:39.125Z,41.87
2018-03-04T17:11:05.466Z,40.97
2018-03-04T17:13:31.598Z,40.47
2018-03-04T17:15:57.998Z,44.83
2018-03-04T17:18:24.252Z,40.63
2018-03-04T17:20:50.491Z,39.07
2018-03-04T17:23:16.719Z,43.73
2018-03-04T17:25:42.795Z,37.10
2018-03-04T17:28:09.145Z,40.03
2018-03-04T17:30:35.309Z,50.20
2018-03-04T17:33:01.415Z,46.73
2018-03-04T17:35:27.474Z,46.03
2018-03-04T17:37:53.674Z,52.63
2018-03-04T17:40:19.820Z,49.70
2018-03-04T17:42:47.003Z,49.90
2018-03-04T17:45:13.089Z,51.13
2018-03-04T17:47:39.368Z,44.43
2018-03-04T17:50:05.482Z,46.43
2018-03-04T17:52:32.049Z,49.83
2018-03-04T17:54:58.198Z,40.57
2018-03-04T17:57:24.519Z,49.97
2018-03-04T17:59:50.796Z,48.07
2018-03-04T18:02:16.963Z,45.93
2018-03-04T18:04:43.537Z,48.57
2018-03-04T18:07:09.682Z,44.10
2018-03-04T18:09:50.742Z,49.80
2018-03-04T18:12:17.031Z,61.93
2018-03-04T18:14:43.172Z,56.90
2018-03-04T18:17:09.315Z,54.23
2018-03-04T18:19:35.383Z,52.27
2018-03-04T18:22:01.652Z,48.00
2018-03-04T18:24:27.737Z,44.23
2018-03-04T18:26:53.863Z,46.70
2018-03-04T18:29:20.002Z,54.07
2018-03-04T18:31:46.146Z,53.23
2018-03-04T18:34:14.118Z,55.63
2018-03-04T18:36:40.231Z,46.47
2018-03-04T18:39:06.365Z,41.47
2018-03-04T18:41:32.678Z,47.40
2018-03-04T18:43:58.804Z,48.37
2018-03-04T18:46:25.007Z,46.90
2018-03-04T18:48:51.293Z,51.20
2018-03-04T18:51:17.429Z,54.27
2018-03-04T18:53:43.629Z,49.93
2018-03-04T18:56:11.432Z,49.07
2018-03-04T18:58:38.587Z,52.17
2018-03-04T19:01:04.987Z,45.10
2018-03-04T19:03:31.098Z,39.67
2018-03-04T19:05:57.307Z,38.57
2018-03-04T19:08:23.672Z,48.97
2018-03-04T19:10:49.779Z,48.57
2018-03-04T19:13:15.887Z,46.53
2018-03-04T19:15:41.950Z,40.93
2018-03-04T19:18:08.721Z,45.30
2018-03-04T19:20:34.800Z,46.23
2018-03-04T19:23:00.987Z,42.40
2018-03-04T19:25:28.115Z,48.47
2018-03-04T19:27:54.291Z,39.63
2018-03-04T19:30:20.546Z,37.87
2018-03-04T19:32:46.632Z,40.13
2018-03-04T19:38:06.037Z,43.57
2018-03-04T19:40:32.193Z,41.50
2018-03-04T19:42:58.909Z,58.80
2018-03-04T19:45:25.039Z,46.43
2018-03-04T19:47:51.227Z,40.40
2018-03-04T19:50:17.373Z,43.73
2018-03-04T19:52:43.705Z,37.23
2018-03-04T19:55:09.821Z,39.97
2018-03-04T19:57:36.835Z,38.53
2018-03-04T20:00:03.522Z,35.40
2018-03-04T20:02:29.683Z,41.53
2018-03-04T20:04:55.791Z,42.30
2018-03-04T20:07:22.234Z,36.43
2018-03-04T20:09:49.458Z,39.07
2018-03-04T20:12:15.680Z,38.70
2018-03-04T20:14:43.627Z,40.90
2018-03-04T20:17:10.344Z,43.87
2018-03-04T20:19:36.560Z,39.43
2018-03-04T20:22:02.647Z,39.33
2018-03-04T20:24:29.543Z,40.13
2018-03-04T20:26:55.626Z,33.87
2018-03-04T20:29:22.050Z,37.93
2018-03-04T20:31:48.290Z,34.37
2018-03-04T20:34:15.296Z,38.40
2018-03-04T20:36:41.442Z,29.00
2018-03-04T20:39:07.561Z,37.23
2018-03-04T20:41:34.410Z,35.63
2018-03-04T20:44:01.345Z,36.47
2018-03-04T20:46:27.391Z,32.93
2018-03-04T20:48:54.025Z,37.80
2018-03-04T20:51:20.178Z,35.60
2018-03-04T20:53:46.285Z,35.63
2018-03-04T20:56:13.262Z,39.53
2018-03-04T20:58:39.444Z,37.43
2018-03-04T21:01:05.585Z,38.00
2018-03-04T21:03:31.674Z,35.77
2018-03-04T21:05:57.736Z,36.40
2018-03-04T21:08:24.118Z,31.70
2018-03-04T21:10:50.211Z,41.27
2018-03-04T21:13:16.910Z,41.43
2018-03-04T21:15:43.038Z,43.20
2018-03-04T21:21:02.337Z,45.93
2018-03-04T21:23:30.458Z,45.67
2018-03-04T21:25:56.528Z,46.10
2018-03-04T21:28:22.669Z,42.07
2018-03-04T21:30:48.820Z,43.33
2018-03-04T21:33:14.983Z,40.00
2018-03-04T21:35:41.203Z,48.27
2018-03-04T21:38:07.361Z,43.13
2018-03-04T21:40:33.574Z,43.00
2018-03-04T21:42:59.652Z,43.67
2018-03-04T21:45:25.777Z,45.47
2018-03-04T21:47:51.828Z,41.17
2018-03-04T21:50:17.873Z,44.63
2018-03-04T21:52:44.064Z,42.73
2018-03-04T21:55:10.186Z,43.93
2018-03-04T21:57:36.289Z,43.43
2018-03-04T22:00:02.424Z,45.13
2018-03-04T22:02:28.539Z,44.00
2018-03-04T22:04:54.627Z,39.17
2018-03-04T22:07:20.737Z,44.37
2018-03-04T22:09:46.809Z,43.87
2018-03-04T22:12:13.536Z,42.90
2018-03-04T22:14:39.655Z,43.80
2018-03-04T22:17:05.949Z,45.97
2018-03-04T22:19:32.072Z,37.67
2018-03-04T22:21:58.123Z,43.03
2018-03-04T22:24:24.219Z,41.70
2018-03-04T22:26:50.263Z,39.67
2018-03-04T22:29:16.318Z,41.40
2018-03-04T22:31:42.410Z,44.53
2018-03-04T22:34:08.521Z,42.33
2018-03-04T22:36:34.601Z,43.37
2018-03-04T22:39:00.676Z,43.57
2018-03-04T22:41:26.765Z,46.03
2018-03-04T22:43:52.872Z,42.80
2018-03-04T22:46:18.902Z,42.80
2018-03-04T22:48:45.003Z,43.33
2018-03-04T22:51:11.038Z,42.63
2018-03-04T22:53:37.122Z,40.67
2018-03-04T22:56:03.201Z,35.33
2018-03-04T22:58:29.209Z,34.47
2018-03-04T23:00:55.279Z,35.63
2018-03-04T23:03:21.339Z,47.73
2018-03-04T23:05:47.515Z,42.10
2018-03-04T23:08:13.566Z,42.50
2018-03-04T23:10:39.634Z,35.70
2018-03-04T23:13:05.798Z,40.53
2018-03-04T23:15:31.827Z,37.97
2018-03-04T23:17:57.877Z,39.80
2018-03-04T23:20:24.086Z,29.57
2018-03-04T23:22:50.150Z,34.50
2018-03-04T23:25:16.204Z,35.00
2018-03-04T23:27:42.278Z,37.40
2018-03-04T23:30:08.651Z,41.97
2018-03-04T23:32:34.721Z,37.60
2018-03-04T23:35:00.760Z,35.53
2018-03-04T23:37:26.823Z,42.23
2018-03-04T23:39:52.874Z,33.07
2018-03-04T23:42:19.116Z,39.20
2018-03-04T23:44:45.318Z,37.50
2018-03-04T23:47:11.659Z,36.17
2018-03-04T23:49:37.694Z,43.97
2018-03-04T23:52:03.760Z,36.63
2018-03-04T23:54:29.938Z,35.47
2018-03-04T23:56:55.998Z,37.67
2018-03-04T23:59:22.062Z,40.50
